Time;durP1;ratioP1;P1;durP2;ratioP2;P2;SDS_P1;SDS_P2;PMS_P1;PMS_P2;Temp;Humidity;BMP_temperature;BMP_pressure;BME280_temperature;BME280_humidity;BME280_pressure;Samples;Min_cycle;Max_cycle;Signal;HPM_P1;HPM_P2
2021/04/20 00:01:52;;;;;;;;;;;;;;;18.42;40.35;99848.53;5256444;27;33912;-94
2021/04/20 00:04:20;;;;;;;;;;;;;;;18.06;41.13;99841.94;5221280;27;33127;-94
2021/04/20 00:06:47;;;;;;;;;;;;;;;18.17;40.98;99843.94;5239334;27;32020;-94
2021/04/20 00:09:14;;;;;;;;;;;;;;;18.24;40.79;99832.06;5239250;27;32900;-94
2021/04/20 00:11:42;;;;;;;;;;;;;;;18.33;40.64;99838.56;5239372;27;33233;-94
2021/04/20 00:14:11;;;;;;;;;;;;;;;18.39;40.55;99827.63;5245191;27;33015;-94
2021/04/20 00:16:40;;;;;;;;;;;;;;;18.10;41.30;99827.63;5242889;27;32599;-94
2021/04/20 00:19:07;;;;;;;;;;;;;;;17.72;42.30;99829.91;5243213;27;33981;-95
2021/04/20 00:21:36;;;;;;;;;;;;;;;17.61;42.66;99834.00;5238864;27;33488;-93
2021/04/20 00:24:04;;;;;;;;;;;;;;;18.10;41.41;99827.63;5237474;27;32723;-93
2021/04/20 00:26:31;;;;;;;;;;;;;;;18.33;41.03;99828.88;5237719;27;32074;-94
2021/04/20 00:28:58;;;;;;;;;;;;;;;17.85;42.08;99828.22;5239702;27;33749;-94
2021/04/20 00:31:25;;;;;;;;;;;;;;;17.68;42.46;99831.88;5238010;27;33154;-93
2021/04/20 00:34:02;;;;;;;;;;;;;;;17.95;42.15;99832.06;5239457;27;33361;-93
2021/04/20 00:36:29;;;;;;;;;;;;;;;17.72;42.67;99824.63;5237341;27;31941;-94
2021/04/20 00:39:06;;;;;;;;;;;;;;;17.85;42.47;99820.31;5240066;27;33024;-93
2021/04/20 00:41:35;;;;;;;;;;;;;;;18.06;41.83;99820.84;5242758;27;33160;-93
2021/04/20 00:44:03;;;;;;;;;;;;;;;18.17;41.70;99823.69;5244002;27;33054;-93
2021/04/20 00:46:30;;;;;;;;;;;;;;;18.48;40.93;99820.91;5244210;27;32369;-93
2021/04/20 00:48:59;;;;;;;;;;;;;;;18.45;41.04;99821.97;5244803;27;33027;-93
2021/04/20 00:51:28;;;;;;;;;;;;;;;17.66;42.79;99823.22;5241010;27;33435;-94
2021/04/20 00:53:55;;;;;;;;;;;;;;;18.15;41.85;99822.09;5237823;27;33982;-93
2021/04/20 00:56:24;;;;;;;;;;;;;;;18.26;41.58;99817.00;5237872;27;32235;-93
2021/04/20 00:58:53;;;;;;;;;;;;;;;18.11;41.89;99823.19;5238273;27;33141;-93
2021/04/20 01:01:20;;;;;;;;;;;;;;;18.10;41.88;99811.81;5237655;27;33054;-93
2021/04/20 01:03:47;;;;;;;;;;;;;;;18.23;41.53;99811.03;5237508;27;33600;-93
2021/04/20 01:06:15;;;;;;;;;;;;;;;17.65;42.70;99811.81;5237806;27;32180;-95
2021/04/20 01:08:42;;;;;;;;;;;;;;;18.13;41.77;99810.78;5237127;27;32860;-95
2021/04/20 01:11:14;;;;;;;;;;;;;;;17.70;42.74;99814.19;5238045;27;33145;-94
2021/04/20 01:13:41;;;;;;;;;;;;;;;17.92;42.28;99805.88;5237123;27;33933;-94
2021/04/20 01:16:08;;;;;;;;;;;;;;;18.06;42.07;99807.69;5237258;27;32442;-94
2021/04/20 01:18:36;;;;;;;;;;;;;;;17.89;42.40;99808.66;5237280;27;32927;-94
2021/04/20 01:21:08;;;;;;;;;;;;;;;17.82;42.54;99807.34;5237915;27;32964;-94
2021/04/20 01:23:40;;;;;;;;;;;;;;;17.74;42.62;99810.44;5220423;27;32824;-93
2021/04/20 01:26:09;;;;;;;;;;;;;;;17.55;43.13;99807.19;5237465;27;33099;-94
2021/04/20 01:28:36;;;;;;;;;;;;;;;17.92;42.36;99805.88;5236928;27;32995;-94
2021/04/20 01:31:04;;;;;;;;;;;;;;;17.99;42.08;99809.00;5237572;27;33044;-94
2021/04/20 01:33:32;;;;;;;;;;;;;;;18.12;41.83;99807.31;5237189;27;32934;-94
2021/04/20 01:36:00;;;;;;;;;;;;;;;17.77;42.38;99806.78;5237313;27;32020;-93
2021/04/20 01:38:31;;;;;;;;;;;;;;;17.58;42.91;99802.59;5236914;27;33008;-94
2021/04/20 01:41:00;;;;;;;;;;;;;;;17.70;42.64;99799.22;5237121;27;34031;-94
2021/04/20 01:43:28;;;;;;;;;;;;;;;17.60;42.85;99802.50;5237139;27;33091;-94
2021/04/20 01:45:55;;;;;;;;;;;;;;;17.49;43.12;99800.50;5236852;27;33112;-94
2021/04/20 01:48:24;;;;;;;;;;;;;;;17.76;42.59;99798.00;5237523;27;32920;-95
2021/04/20 01:50:51;;;;;;;;;;;;;;;16.31;46.14;99804.41;5237410;27;33626;-95
2021/04/20 01:53:19;;;;;;;;;;;;;;;17.28;43.81;99807.88;5237986;27;32657;-94
2021/04/20 01:55:48;;;;;;;;;;;;;;;17.64;42.81;99804.88;5220855;27;32307;-94
2021/04/20 01:58:16;;;;;;;;;;;;;;;16.80;44.73;99800.00;5238778;27;32786;-95
2021/04/20 02:00:45;;;;;;;;;;;;;;;17.67;42.85;99802.06;5237312;27;33018;-92
2021/04/20 02:03:14;;;;;;;;;;;;;;;17.74;42.50;99799.91;5237708;27;32971;-95
2021/04/20 02:05:41;;;;;;;;;;;;;;;17.55;42.88;99802.78;5237125;27;32140;-93
2021/04/20 02:08:08;;;;;;;;;;;;;;;17.34;43.41;99804.88;5237028;27;32953;-94
2021/04/20 02:10:38;;;;;;;;;;;;;;;17.61;42.89;99801.56;5236999;27;34333;-94
2021/04/20 02:13:05;;;;;;;;;;;;;;;17.72;42.68;99795.66;5236722;27;32494;-93
2021/04/20 02:15:33;;;;;;;;;;;;;;;17.22;43.74;99801.19;5219040;27;31982;-93
2021/04/20 02:18:01;;;;;;;;;;;;;;;17.42;43.31;99799.19;5237098;27;33841;-94
2021/04/20 02:20:29;;;;;;;;;;;;;;;16.76;44.83;99794.06;5238032;27;34157;-94
2021/04/20 02:22:58;;;;;;;;;;;;;;;16.89;44.56;99788.97;5238556;27;32754;-94
2021/04/20 02:25:25;;;;;;;;;;;;;;;17.54;43.03;99790.53;5238064;27;31944;-94
2021/04/20 02:27:52;;;;;;;;;;;;;;;17.76;42.50;99789.25;5237379;27;33013;-94
2021/04/20 02:30:21;;;;;;;;;;;;;;;17.61;42.87;99798.94;5238023;27;33208;-94
2021/04/20 02:32:49;;;;;;;;;;;;;;;17.41;43.20;99790.41;5238070;27;33881;-94
2021/04/20 02:35:19;;;;;;;;;;;;;;;17.34;43.47;99797.00;5237957;27;32435;-94
2021/04/20 02:37:48;;;;;;;;;;;;;;;17.59;42.99;99793.75;5238698;27;33829;-94
2021/04/20 02:40:18;;;;;;;;;;;;;;;17.13;43.86;99792.00;5237989;27;32658;-94
2021/04/20 02:42:47;;;;;;;;;;;;;;;17.59;42.76;99796.41;5238143;27;32837;-94
2021/04/20 02:45:17;;;;;;;;;;;;;;;17.63;42.80;99791.78;5238305;27;33088;-95
2021/04/20 02:47:44;;;;;;;;;;;;;;;17.44;42.98;99797.28;5237733;27;32978;-94
2021/04/20 02:50:13;;;;;;;;;;;;;;;17.73;42.45;99795.56;5238001;27;33966;-93
2021/04/20 02:52:42;;;;;;;;;;;;;;;17.56;42.74;99790.44;5238237;27;33251;-94
2021/04/20 02:55:10;;;;;;;;;;;;;;;17.43;43.05;99790.31;5237871;27;32068;-94
2021/04/20 02:57:38;;;;;;;;;;;;;;;17.65;42.57;99793.38;5238204;27;32899;-94
2021/04/20 03:00:07;;;;;;;;;;;;;;;17.34;43.25;99789.09;5238210;27;33022;-95
2021/04/20 03:02:36;;;;;;;;;;;;;;;17.25;43.45;99785.19;5238155;27;32542;-94
2021/04/20 03:05:10;;;;;;;;;;;;;;;16.64;45.04;99784.22;5238057;27;31826;-94
2021/04/20 03:07:38;;;;;;;;;;;;;;;17.35;43.47;99778.47;5238343;27;32850;-94
2021/04/20 03:10:06;;;;;;;;;;;;;;;16.74;44.74;99774.03;5238051;27;33158;-94
2021/04/20 03:12:35;;;;;;;;;;;;;;;17.21;43.78;99777.56;5238456;27;33422;-94
2021/04/20 03:15:03;;;;;;;;;;;;;;;16.95;44.21;99774.63;5238115;27;32217;-94
2021/04/20 03:17:31;;;;;;;;;;;;;;;16.95;44.25;99780.75;5220084;27;34228;-94
2021/04/20 03:19:58;;;;;;;;;;;;;;;17.32;43.45;99772.50;5238239;27;33468;-94
2021/04/20 03:22:27;;;;;;;;;;;;;;;16.81;44.62;99783.28;5256574;27;33972;-93
2021/04/20 03:24:57;;;;;;;;;;;;;;;16.99;44.15;99774.38;5238180;27;31971;-94
2021/04/20 03:27:24;;;;;;;;;;;;;;;16.94;44.37;99784.31;5256098;27;34163;-95
2021/04/20 03:29:54;;;;;;;;;;;;;;;17.13;43.82;99775.38;5238568;27;33330;-94
2021/04/20 03:32:22;;;;;;;;;;;;;;;17.23;43.65;99784.44;5238978;27;32769;-94
2021/04/20 03:35:05;;;;;;;;;;;;;;;16.98;44.27;99777.12;5243510;27;32044;-93
2021/04/20 03:37:34;;;;;;;;;;;;;;;16.90;44.67;99781.94;5239412;27;33331;-95
2021/04/20 03:40:03;;;;;;;;;;;;;;;17.24;43.64;99787.91;5258203;27;33914;-93
2021/04/20 03:42:32;;;;;;;;;;;;;;;17.22;43.72;99787.16;5239197;27;32897;-94
2021/04/20 03:45:02;;;;;;;;;;;;;;;17.62;42.71;99784.81;5205243;27;32332;-92
2021/04/20 03:47:38;;;;;;;;;;;;;;;17.34;43.29;99789.91;5239419;27;33775;-93
2021/04/20 03:50:06;;;;;;;;;;;;;;;17.26;43.44;99786.06;5237677;27;33382;-94
2021/04/20 03:52:36;;;;;;;;;;;;;;;17.03;43.99;99781.16;5221643;27;32867;-94
2021/04/20 03:55:03;;;;;;;;;;;;;;;17.61;42.72;99783.97;5238920;27;33243;-94
2021/04/20 03:57:33;;;;;;;;;;;;;;;17.38;43.01;99782.69;5239169;27;33945;-94
2021/04/20 04:00:01;;;;;;;;;;;;;;;17.40;42.81;99786.06;5256771;27;34139;-93
2021/04/20 04:02:30;;;;;;;;;;;;;;;17.23;43.10;99791.47;5238062;27;32726;-93
2021/04/20 04:04:58;;;;;;;;;;;;;;;16.97;43.81;99799.09;5238319;27;31803;-93
2021/04/20 04:07:26;;;;;;;;;;;;;;;17.15;43.49;99786.66;5238436;27;32903;-93
2021/04/20 04:09:53;;;;;;;;;;;;;;;17.52;42.52;99790.63;5237854;27;33247;-93
2021/04/20 04:12:21;;;;;;;;;;;;;;;17.27;43.01;99796.50;5237598;27;33085;-93
2021/04/20 04:14:48;;;;;;;;;;;;;;;17.15;43.31;99795.41;5237388;27;32420;-93
2021/04/20 04:17:15;;;;;;;;;;;;;;;16.62;44.61;99796.59;5255912;27;32824;-95
2021/04/20 04:19:44;;;;;;;;;;;;;;;17.06;43.55;99801.22;5237864;27;34038;-94
2021/04/20 04:22:12;;;;;;;;;;;;;;;17.09;43.39;99801.03;5237879;27;32783;-94
2021/04/20 04:24:47;;;;;;;;;;;;;;;16.58;44.56;99798.56;5237471;27;33022;-94
2021/04/20 04:27:18;;;;;;;;;;;;;;;16.95;43.82;99793.06;5237716;27;33334;-93
2021/04/20 04:29:46;;;;;;;;;;;;;;;17.28;43.11;99803.44;5237361;27;33130;-95
2021/04/20 04:32:13;;;;;;;;;;;;;;;17.34;43.04;99807.53;5219761;27;33057;-93
2021/04/20 04:34:41;;;;;;;;;;;;;;;16.74;44.33;99802.97;5237487;27;32091;-94
2021/04/20 04:37:08;;;;;;;;;;;;;;;17.35;42.93;99796.91;5237319;27;32890;-93
2021/04/20 04:39:37;;;;;;;;;;;;;;;17.05;43.65;99796.03;5237121;27;33066;-94
2021/04/20 04:42:04;;;;;;;;;;;;;;;17.62;42.36;99795.37;5236953;27;33043;-94
2021/04/20 04:44:31;;;;;;;;;;;;;;;17.30;42.97;99793.69;5255756;27;32762;-93
2021/04/20 04:46:59;;;;;;;;;;;;;;;17.50;42.45;99797.78;5255647;27;34206;-94
2021/04/20 04:49:27;;;;;;;;;;;;;;;17.26;43.23;99793.97;5237995;27;34148;-93
2021/04/20 04:51:56;;;;;;;;;;;;;;;17.29;43.36;99805.13;5237334;27;33553;-93
2021/04/20 04:54:23;;;;;;;;;;;;;;;17.08;43.89;99796.69;5238513;27;32260;-94
2021/04/20 04:56:52;;;;;;;;;;;;;;;17.08;44.17;99801.94;5237387;27;33171;-94
2021/04/20 04:59:20;;;;;;;;;;;;;;;17.17;43.61;99801.44;5237389;27;33060;-93
2021/04/20 05:01:50;;;;;;;;;;;;;;;16.93;44.31;99808.09;5237590;27;33216;-93
2021/04/20 05:04:20;;;;;;;;;;;;;;;16.69;45.04;99800.59;5237514;27;32754;-93
2021/04/20 05:06:48;;;;;;;;;;;;;;;16.86;44.40;99811.03;5237990;27;32889;-93
2021/04/20 05:09:17;;;;;;;;;;;;;;;16.87;44.58;99809.25;5237194;27;34392;-94
2021/04/20 05:11:46;;;;;;;;;;;;;;;17.24;43.56;99815.09;5220041;27;33029;-93
2021/04/20 05:14:14;;;;;;;;;;;;;;;17.62;42.83;99806.75;5222125;27;31721;-94
2021/04/20 05:16:46;;;;;;;;;;;;;;;17.68;42.63;99805.50;5247051;27;32776;-93
2021/04/20 05:19:15;;;;;;;;;;;;;;;17.08;43.97;99812.47;5244653;27;32966;-93
2021/04/20 05:24:43;;;;;;;;;;;;;;;17.30;43.27;99817.37;5260927;27;32118;-93
2021/04/20 05:27:10;;;;;;;;;;;;;;;17.97;41.92;99811.69;5245013;27;33033;-92
2021/04/20 05:29:38;;;;;;;;;;;;;;;17.81;42.24;99824.94;5222885;26;33925;-94
2021/04/20 05:32:17;;;;;;;;;;;;;;;17.68;42.87;99818.69;5262003;27;33927;-92
2021/04/20 05:34:44;;;;;;;;;;;;;;;17.49;43.26;99817.13;5240156;27;32254;-94
2021/04/20 05:37:12;;;;;;;;;;;;;;;17.06;44.64;99809.09;5242633;27;32849;-94
2021/04/20 05:39:42;;;;;;;;;;;;;;;17.27;44.57;99825.47;5245913;27;33859;-94
2021/04/20 05:42:11;;;;;;;;;;;;;;;17.57;43.92;99814.06;5243585;27;32609;-93
2021/04/20 05:45:00;;;;;;;;;;;;;;;17.11;45.06;99820.22;5204072;27;33753;-91
2021/04/20 05:47:30;;;;;;;;;;;;;;;18.01;43.05;99818.47;5198365;27;32713;-91
2021/04/20 05:50:02;;;;;;;;;;;;;;;18.02;42.83;99820.19;5203728;27;33101;-94
2021/04/20 05:53:09;;;;;;;;;;;;;;;17.91;42.86;99813.84;5238000;26;20028;-92
2021/04/20 05:55:37;;;;;;;;;;;;;;;18.08;42.52;99819.00;5218047;27;33227;-94
2021/04/20 05:58:04;;;;;;;;;;;;;;;17.56;43.88;99812.34;5252943;27;36245;-92
2021/04/20 06:00:32;;;;;;;;;;;;;;;17.86;43.36;99819.41;5235927;27;34822;-90
2021/04/20 06:02:59;;;;;;;;;;;;;;;18.16;42.74;99824.63;5217682;27;33194;-93
2021/04/20 06:05:27;;;;;;;;;;;;;;;18.07;42.96;99817.28;5218629;27;32574;-93
2021/04/20 06:07:58;;;;;;;;;;;;;;;17.46;44.59;99817.31;5222662;27;34024;-94
2021/04/20 06:11:17;;;;;;;;;;;;;;;18.43;42.13;99813.31;5163679;27;33148;-93
2021/04/20 06:14:07;;;;;;;;;;;;;;;18.26;42.88;99821.44;5145771;27;32528;-94
2021/04/20 06:16:42;;;;;;;;;;;;;;;17.99;43.45;99825.66;5181911;27;33118;-92
2021/04/20 06:19:11;;;;;;;;;;;;;;;18.23;43.05;99817.19;5179283;27;32918;-94
2021/04/20 06:22:15;;;;;;;;;;;;;;;18.74;41.81;99827.19;5166857;27;33009;-92
2021/04/20 06:25:05;;;;;;;;;;;;;;;18.73;41.84;99832.59;5115553;27;33410;-85
2021/04/20 06:27:48;;;;;;;;;;;;;;;18.34;42.74;99819.16;5117294;27;33943;-85
2021/04/20 06:30:25;;;;;;;;;;;;;;;18.58;42.09;99824.69;5200964;27;34977;-85
2021/04/20 06:33:01;;;;;;;;;;;;;;;19.28;40.69;99829.03;5186581;27;34171;-84
2021/04/20 06:35:51;;;;;;;;;;;;;;;19.25;40.78;99831.03;5169139;27;34082;-86
2021/04/20 06:38:21;;;;;;;;;;;;;;;19.59;39.84;99834.09;5178288;27;33380;-85
2021/04/20 06:40:54;;;;;;;;;;;;;;;19.66;39.66;99838.00;5177341;27;33955;-86
2021/04/20 06:43:52;;;;;;;;;;;;;;;19.99;38.79;99829.59;5177585;27;33916;-87
2021/04/20 06:46:24;;;;;;;;;;;;;;;19.60;39.25;99831.34;5173428;27;33162;-84
2021/04/20 06:48:54;;;;;;;;;;;;;;;19.61;39.36;99838.31;5159325;27;32666;-85
2021/04/20 06:51:45;;;;;;;;;;;;;;;19.89;38.83;99836.50;5171433;27;34735;-85
2021/04/20 06:54:26;;;;;;;;;;;;;;;19.51;39.53;99838.06;5171157;27;33808;-84
2021/04/20 06:57:08;;;;;;;;;;;;;;;19.71;39.27;99841.19;5171173;27;33507;-84
2021/04/20 06:59:50;;;;;;;;;;;;;;;20.02;38.31;99841.75;5136527;27;32238;-85
2021/04/20 07:02:37;;;;;;;;;;;;;;;19.94;38.61;99839.63;5153433;27;34653;-85
2021/04/20 07:05:08;;;;;;;;;;;;;;;19.44;39.51;99838.56;5243363;27;33602;-85
2021/04/20 07:07:52;;;;;;;;;;;;;;;19.96;38.38;99853.59;5170015;27;34252;-85
2021/04/20 07:10:23;;;;;;;;;;;;;;;20.16;38.03;99846.94;5260854;27;32722;-85
2021/04/20 07:12:53;;;;;;;;;;;;;;;18.84;40.70;99856.50;5187427;27;33792;-86
2021/04/20 07:15:21;;;;;;;;;;;;;;;19.50;39.44;99856.69;5153544;27;35210;-85
2021/04/20 07:18:07;;;;;;;;;;;;;;;19.19;40.13;99851.59;5135885;27;32991;-85
2021/04/20 07:20:47;;;;;;;;;;;;;;;18.31;42.25;99856.28;5187910;27;33215;-85
2021/04/20 07:23:33;;;;;;;;;;;;;;;18.85;41.03;99852.91;5170331;27;34116;-84
2021/04/20 07:26:03;;;;;;;;;;;;;;;18.74;40.93;99858.03;5187379;27;34240;-85
2021/04/20 07:28:40;;;;;;;;;;;;;;;19.00;40.14;99859.88;5170400;27;33155;-85
2021/04/20 07:31:09;;;;;;;;;;;;;;;19.02;39.91;99857.97;5170675;27;32951;-86
2021/04/20 07:33:55;;;;;;;;;;;;;;;19.26;39.64;99859.16;5152878;27;33104;-85
2021/04/20 07:36:36;;;;;;;;;;;;;;;18.97;40.17;99861.88;5169977;27;34084;-85
2021/04/20 07:39:10;;;;;;;;;;;;;;;19.36;39.53;99853.16;5187556;27;35199;-86
2021/04/20 07:42:21;;;;;;;;;;;;;;;19.61;38.94;99858.59;5171393;27;33210;-86
2021/04/20 07:45:16;;;;;;;;;;;;;;;20.15;38.14;99861.13;5175952;27;34421;-85
2021/04/20 07:47:48;;;;;;;;;;;;;;;19.26;39.55;99865.25;5243773;27;33082;-86
2021/04/20 07:50:17;;;;;;;;;;;;;;;18.18;42.43;99861.44;5171310;27;33963;-85
2021/04/20 07:52:47;;;;;;;;;;;;;;;18.81;41.11;99859.31;5170583;27;33033;-85
2021/04/20 07:55:19;;;;;;;;;;;;;;;19.31;40.06;99865.81;5169731;27;32686;-83
2021/04/20 07:57:54;;;;;;;;;;;;;;;18.39;42.27;99861.06;5169843;27;34920;-85
2021/04/20 08:00:27;;;;;;;;;;;;;;;18.75;41.27;99860.56;5170093;27;33116;-85
2021/04/20 08:02:56;;;;;;;;;;;;;;;17.41;44.58;99858.03;5169756;27;33259;-85
2021/04/20 08:05:41;;;;;;;;;;;;;;;17.69;44.11;99868.66;5169964;27;34226;-86
2021/04/20 08:08:08;;;;;;;;;;;;;;;18.35;42.42;99863.91;5152658;27;34588;-86
2021/04/20 08:10:42;;;;;;;;;;;;;;;19.10;40.90;99862.78;5187365;27;33539;-85
2021/04/20 08:13:24;;;;;;;;;;;;;;;19.35;40.28;99855.91;5242355;27;31827;-86
2021/04/20 08:15:53;;;;;;;;;;;;;;;19.65;39.73;99863.59;5187502;27;32813;-86
2021/04/20 08:18:34;;;;;;;;;;;;;;;19.28;40.28;99866.03;5138647;27;33453;-84
2021/04/20 08:21:07;;;;;;;;;;;;;;;18.26;42.46;99858.34;5169694;27;33229;-86
2021/04/20 08:23:46;;;;;;;;;;;;;;;18.21;43.00;99866.53;5259781;27;32093;-86
2021/04/20 08:26:19;;;;;;;;;;;;;;;18.19;43.24;99866.63;5153706;27;33584;-85
2021/04/20 08:28:48;;;;;;;;;;;;;;;18.57;42.31;99862.56;5153374;27;34992;-85
2021/04/20 08:31:18;;;;;;;;;;;;;;;19.54;39.95;99868.72;5152585;27;33199;-85
2021/04/20 08:33:47;;;;;;;;;;;;;;;19.39;40.14;99867.97;5170190;27;33204;-86
2021/04/20 10:17:17;;;;;;;;;;;;;;;22.32;32.49;99835.59;5216497;27;19982;-94
2021/04/20 10:19:52;;;;;;;;;;;;;;;22.08;32.57;99832.19;5225753;27;33091;-92
2021/04/20 10:22:41;;;;;;;;;;;;;;;22.18;31.77;99828.69;5227309;27;32982;-96
2021/04/20 10:28:56;;;;;;;;;;;;;;;22.34;32.56;99825.66;5234342;27;19981;-96
2021/04/20 10:32:18;;;;;;;;;;;;;;;22.92;31.33;99824.66;5289010;27;19989;-96
2021/04/20 10:41:27;;;;;;;;;;;;;;;22.66;33.66;99819.63;5236039;27;20025;-96
2021/04/20 10:47:40;;;;;;;;;;;;;;;22.58;35.73;99816.75;5182025;27;20313;-91
2021/04/20 10:50:08;;;;;;;;;;;;;;;22.71;37.00;99823.72;5243143;27;34012;-92
2021/04/20 10:52:36;;;;;;;;;;;;;;;22.94;35.87;99820.06;5230240;27;32262;-91
2021/04/20 10:55:12;;;;;;;;;;;;;;;22.72;34.97;99817.47;5223468;27;34033;-92
2021/04/20 10:57:44;;;;;;;;;;;;;;;22.01;35.91;99814.09;5230918;27;35187;-91
2021/04/20 11:00:15;;;;;;;;;;;;;;;22.16;35.89;99813.84;5267073;27;33453;-90
2021/04/20 11:02:48;;;;;;;;;;;;;;;22.24;34.21;99800.81;5289203;27;32698;-95
2021/04/20 11:05:52;;;;;;;;;;;;;;;22.06;34.61;99812.88;5315824;27;20004;-93
2021/04/20 11:08:39;;;;;;;;;;;;;;;22.42;34.38;99803.03;5267247;27;19955;-94
2021/04/20 11:14:51;;;;;;;;;;;;;;;22.47;36.63;99803.47;5193261;27;19993;-94
2021/04/20 11:17:56;;;;;;;;;;;;;;;22.32;37.93;99801.09;5282817;27;19969;-94
2021/04/20 11:20:40;;;;;;;;;;;;;;;22.56;35.42;99796.59;5245992;27;33447;-94
2021/04/20 11:23:08;;;;;;;;;;;;;;;22.98;36.14;99804.72;5259447;27;32721;-93
2021/04/20 11:25:53;;;;;;;;;;;;;;;23.06;34.72;99798.78;5239384;27;34459;-90
2021/04/20 11:28:21;;;;;;;;;;;;;;;23.32;35.18;99793.97;5276776;27;32912;-89
2021/04/20 11:30:52;;;;;;;;;;;;;;;22.99;35.51;99793.13;5240933;27;32716;-91
2021/04/20 11:33:21;;;;;;;;;;;;;;;23.34;33.58;99794.69;5263363;27;33511;-90
2021/04/20 11:35:50;;;;;;;;;;;;;;;22.88;34.66;99795.81;5281100;27;32094;-90
2021/04/20 11:38:17;;;;;;;;;;;;;;;23.09;35.17;99794.03;5262773;27;33264;-93
2021/04/20 11:41:13;;;;;;;;;;;;;;;23.01;34.96;99796.50;5280515;27;34520;-93
2021/04/20 11:43:41;;;;;;;;;;;;;;;23.41;36.09;99795.03;5261708;27;32683;-93
2021/04/20 11:46:17;;;;;;;;;;;;;;;23.51;35.84;99790.63;5264221;27;32136;-93
2021/04/20 11:48:50;;;;;;;;;;;;;;;23.52;34.81;99790.50;5312507;26;34472;-93
2021/04/20 11:51:48;;;;;;;;;;;;;;;23.21;34.75;99786.91;5291607;27;33051;-92
2021/04/20 11:54:20;;;;;;;;;;;;;;;22.86;34.78;99782.66;5302087;27;32910;-93
2021/04/20 11:56:47;;;;;;;;;;;;;;;22.96;33.32;99775.62;5302917;27;32630;-94
2021/04/20 11:59:18;;;;;;;;;;;;;;;23.12;32.38;99779.66;5302844;27;33433;-95
2021/04/20 12:01:46;;;;;;;;;;;;;;;23.44;33.18;99784.12;5302823;27;33428;-94
2021/04/20 12:04:15;;;;;;;;;;;;;;;23.27;34.61;99780.25;5302679;27;33977;-94
2021/04/20 12:06:49;;;;;;;;;;;;;;;23.21;34.81;99781.56;5302561;27;32727;-94
2021/04/20 12:09:23;;;;;;;;;;;;;;;23.62;33.04;99779.91;5321755;26;32856;-96
2021/04/20 12:11:51;;;;;;;;;;;;;;;23.29;33.25;99787.09;5284373;27;33799;-95
2021/04/20 12:14:23;;;;;;;;;;;;;;;23.00;33.13;99785.03;5248891;27;33423;-94
2021/04/20 12:16:53;;;;;;;;;;;;;;;22.44;32.49;99795.78;5302360;27;32049;-94
2021/04/20 12:19:24;;;;;;;;;;;;;;;22.26;32.84;99785.63;5302700;27;33916;-95
2021/04/20 12:22:01;;;;;;;;;;;;;;;22.30;32.69;99796.84;5292121;27;34070;-94
2021/04/20 12:24:32;;;;;;;;;;;;;;;21.47;34.86;99785.50;5307016;27;33199;-94
2021/04/20 12:27:02;;;;;;;;;;;;;;;21.39;35.52;99783.44;5326186;27;34254;-95
2021/04/20 12:29:32;;;;;;;;;;;;;;;20.84;37.66;99786.59;5309454;27;32908;-95
2021/04/20 12:31:59;;;;;;;;;;;;;;;20.80;38.10;99781.63;5303444;27;33104;-94
2021/04/20 12:34:29;;;;;;;;;;;;;;;20.47;38.42;99783.09;5303602;27;33070;-93
2021/04/20 12:37:00;;;;;;;;;;;;;;;21.22;37.06;99768.84;5303402;27;32467;-94
2021/04/20 12:39:34;;;;;;;;;;;;;;;21.17;37.77;99779.75;5321024;26;34844;-93
2021/04/20 12:42:04;;;;;;;;;;;;;;;21.15;36.96;99772.87;5302985;27;32788;-93
2021/04/20 12:44:48;;;;;;;;;;;;;;;21.66;36.12;99769.94;5321117;26;33085;-93
2021/04/20 12:47:30;;;;;;;;;;;;;;;21.92;35.98;99774.19;5302553;27;32077;-94
2021/04/20 12:49:58;;;;;;;;;;;;;;;21.53;36.67;99761.19;5301293;27;34036;-94
2021/04/20 12:52:27;;;;;;;;;;;;;;;21.60;36.39;99761.59;5301341;27;33166;-95
2021/04/20 12:54:56;;;;;;;;;;;;;;;21.11;36.84;99766.13;5301586;27;32897;-94
2021/04/20 12:57:36;;;;;;;;;;;;;;;21.29;37.27;99758.63;5301664;27;32137;-95
2021/04/20 13:00:26;;;;;;;;;;;;;;;20.95;37.05;99759.31;5302488;27;34064;-94
2021/04/20 13:02:57;;;;;;;;;;;;;;;21.13;35.98;99754.47;5303787;27;33243;-94
2021/04/20 13:05:28;;;;;;;;;;;;;;;21.64;35.45;99758.59;5312571;27;33030;-94
2021/04/20 13:08:04;;;;;;;;;;;;;;;20.84;36.25;99751.34;5317054;27;33279;-95
2021/04/20 13:10:32;;;;;;;;;;;;;;;21.92;34.27;99755.59;5318223;27;33022;-95
2021/04/20 13:13:02;;;;;;;;;;;;;;;22.32;34.33;99757.75;5318899;26;32914;-95
2021/04/20 13:15:30;;;;;;;;;;;;;;;22.51;33.69;99750.03;5330113;26;35207;-96
2021/04/20 13:18:01;;;;;;;;;;;;;;;22.47;33.30;99745.09;5291571;27;31882;-92
2021/04/20 13:20:33;;;;;;;;;;;;;;;22.42;32.84;99742.00;5324467;27;33945;-91
2021/04/20 13:23:19;;;;;;;;;;;;;;;22.85;32.86;99741.97;5305200;27;33379;-90
2021/04/20 13:26:07;;;;;;;;;;;;;;;22.66;31.65;99742.63;5281844;27;33792;-87
2021/04/20 13:28:35;;;;;;;;;;;;;;;23.11;31.19;99743.44;5268140;26;1076285;-95
2021/04/20 13:31:28;;;;;;;;;;;;;;;24.04;30.40;99739.12;5307640;27;32874;-96
2021/04/20 13:34:26;;;;;;;;;;;;;;;24.07;29.81;99730.03;5303509;27;33119;-95
2021/04/20 13:37:26;;;;;;;;;;;;;;;24.27;29.80;99731.78;5303411;27;33346;-95
2021/04/20 13:40:09;;;;;;;;;;;;;;;24.65;28.38;99732.84;5304089;27;32094;-92
2021/04/20 13:42:44;;;;;;;;;;;;;;;24.61;26.65;99733.22;5286692;27;34137;-95
2021/04/20 13:45:12;;;;;;;;;;;;;;;24.15;27.24;99728.38;5304231;27;32992;-93
2021/04/20 13:47:42;;;;;;;;;;;;;;;24.97;25.83;99730.88;5285260;27;34241;-94
2021/04/20 13:50:27;;;;;;;;;;;;;;;24.83;25.43;99718.84;5304122;27;32425;-93
2021/04/20 13:52:57;;;;;;;;;;;;;;;24.60;25.97;99723.56;5303881;27;33423;-89
2021/04/20 13:55:28;;;;;;;;;;;;;;;24.48;24.88;99725.53;5301360;27;33095;-90
2021/04/20 13:58:03;;;;;;;;;;;;;;;24.77;24.52;99720.25;5300695;27;33837;-86
2021/04/20 14:00:37;;;;;;;;;;;;;;;24.77;25.25;99720.25;5300786;27;32907;-89
2021/04/20 14:03:06;;;;;;;;;;;;;;;25.12;24.46;99726.00;5284166;27;32995;-91
2021/04/20 14:05:36;;;;;;;;;;;;;;;24.51;25.29;99723.41;5283452;27;32699;-94
2021/04/20 14:08:06;;;;;;;;;;;;;;;25.46;24.88;99720.19;5301465;27;33907;-92
2021/04/20 14:10:36;;;;;;;;;;;;;;;25.80;24.02;99719.69;5319124;27;33140;-89
2021/04/20 14:13:04;;;;;;;;;;;;;;;24.99;24.28;99716.44;5301354;27;32905;-91
2021/04/20 14:15:36;;;;;;;;;;;;;;;24.89;25.75;99720.09;5283009;26;32975;-91
2021/04/20 14:18:05;;;;;;;;;;;;;;;24.79;25.90;99714.78;5301793;27;32672;-90
2021/04/20 14:20:35;;;;;;;;;;;;;;;24.30;26.12;99715.50;5302834;27;33019;-92
2021/04/20 14:23:09;;;;;;;;;;;;;;;25.75;24.65;99711.28;5301634;27;33716;-93
2021/04/20 14:25:41;;;;;;;;;;;;;;;25.38;25.10;99712.09;5300918;27;33175;-94
2021/04/20 14:28:13;;;;;;;;;;;;;;;25.15;25.35;99709.72;5301069;27;33923;-93
2021/04/20 14:30:42;;;;;;;;;;;;;;;25.00;25.01;99707.47;5299782;27;32367;-93
2021/04/20 14:33:09;;;;;;;;;;;;;;;25.00;25.25;99712.81;5301420;27;33983;-93
2021/04/20 14:35:37;;;;;;;;;;;;;;;25.21;25.10;99703.81;5303485;27;32796;-93
2021/04/20 14:38:05;;;;;;;;;;;;;;;25.22;24.81;99702.81;5273005;27;34073;-93
2021/04/20 14:40:32;;;;;;;;;;;;;;;25.87;24.08;99698.59;5285749;27;32283;-93
2021/04/20 14:43:05;;;;;;;;;;;;;;;25.64;25.73;99707.78;5300989;27;33900;-93
2021/04/20 14:45:33;;;;;;;;;;;;;;;25.27;26.63;99703.22;5301025;27;33127;-93
2021/04/20 14:48:06;;;;;;;;;;;;;;;25.74;26.50;99710.44;5301577;27;33260;-94
2021/04/20 14:50:34;;;;;;;;;;;;;;;25.32;27.23;99708.12;5320322;27;32894;-94
2021/04/20 14:53:04;;;;;;;;;;;;;;;25.70;26.17;99713.53;5300887;27;33009;-94
2021/04/20 14:55:35;;;;;;;;;;;;;;;24.96;27.74;99724.72;5301138;27;34002;-94
2021/04/20 14:58:02;;;;;;;;;;;;;;;24.38;28.69;99725.47;5300983;27;32850;-94
2021/04/20 15:00:30;;;;;;;;;;;;;;;24.30;27.53;99725.34;5300979;27;32064;-94
2021/04/20 15:02:58;;;;;;;;;;;;;;;24.83;26.91;99718.84;5301542;27;34327;-94
2021/04/20 15:05:26;;;;;;;;;;;;;;;24.71;27.17;99723.47;5301341;27;32922;-93
2021/04/20 15:07:58;;;;;;;;;;;;;;;24.28;28.56;99719.31;5301433;27;32801;-94
2021/04/20 15:10:30;;;;;;;;;;;;;;;24.06;28.65;99723.03;5301170;27;32443;-94
2021/04/20 15:13:00;;;;;;;;;;;;;;;23.37;29.62;99717.34;5301714;27;33096;-94
2021/04/20 15:15:34;;;;;;;;;;;;;;;22.36;31.74;99719.41;5302252;26;33552;-94
2021/04/20 15:18:06;;;;;;;;;;;;;;;22.15;30.09;99728.13;5321305;26;32923;-93